• Join FlightAware (Why Join?)
  • Login
  • US Flag 
12:21PM EDT


 

Airport Tracker/Info


-or-


 

Live Flight TrackerFlight Track Log ✈ DAL4165 ✈ 13-Jun-2013 ✈ KMHT - KDTW

Flight Track Log - Related Links

Times and Time Zones

All times are in EDT time to prevent confusion due to time zone crossing. See the DAL4165 flight status page for this flight to view local times or setup timezone preferences in your user account.

Time Position Orientation Groundspeed Altitude Reporting Facility
EDT Latitude Longitude Course Direction KTS MPH feet Rate Location/Type
07:13AM 42.9167 -71.4667 303° West 160 184 1,100  Level KA90
07:16AM 42.9914 -71.6256 303° West 236 272 6,200 2,220 Climbing Boston Center
07:17AM 43.0336 -71.7044 306° West 254 292 8,900 2,400 Climbing Boston Center
07:18AM 43.0447 -71.8067 278° West 260 299 11,100 1,680 Climbing Boston Center
07:19AM 43.0514 -71.9172 275° West 287 330 12,300 1,500 Climbing Boston Center
07:20AM 43.0561 -72.0394 273° West 312 359 14,100 1,500 Climbing Boston Center
07:21AM 43.0628 -72.1589 274° West 312 359 15,400 1,260 Climbing Boston Center
07:22AM 43.0672 -72.2694 273° West 312 359 16,700 1,200 Climbing Boston Center
07:23AM 43.0756 -72.3889 275° West 317 365 17,900 1,380 Climbing Boston Center
07:24AM 43.0839 -72.5225 275° West 322 371 19,500 1,380 Climbing Boston Center
07:25AM 43.0839 -72.6447 270° West 327 376 20,700 900 Climbing Boston Center
07:26AM 43.0878 -72.7700 272° West 327 376 21,400 660 Climbing Boston Center
07:27AM 43.0914 -72.9006 272° West 332 382 22,100 660 Climbing Boston Center
07:28AM 43.0972 -73.0172 274° West 332 382 22,800 720 Climbing Boston Center
07:29AM 43.1025 -73.1481 273° West 343 395 23,600 780 Climbing Boston Center
07:30AM 43.1058 -73.2789 272° West 348 400 24,400 600 Climbing Boston Center
07:31AM 43.1069 -73.4069 271° West 348 400 24,800 420 Climbing Boston Center
07:32AM 43.1100 -73.5408 272° West 348 400 25,300 480 Climbing Boston Center
07:33AM 43.1147 -73.6717 273° West 348 400 25,800 480 Climbing Boston Center
07:34AM 43.1175 -73.8053 272° West 348 400 26,300 540 Climbing Boston Center
07:35AM 43.1219 -73.9392 273° West 348 400 26,900 540 Climbing Boston Center
07:36AM 43.1264 -74.0700 273° West 348 400 27,400 480 Climbing Boston Center
07:37AM 43.1286 -74.2011 271° West 348 400 27,900 480 Climbing Boston Center
07:38AM 43.1328 -74.3319 273° West 348 400 28,400 480 Climbing Boston Center
07:39AM 43.1347 -74.4631 271° West 348 400 28,900 480 Climbing Boston Center
07:40AM 43.1408 -74.5914 274° West 348 400 29,400 420 Climbing Boston Center
07:41AM 43.1425 -74.7194 271° West 348 400 29,800 300 Climbing Boston Center
07:42AM 43.1442 -74.8475 271° West 348 400 30,000 60 Climbing Boston Center
07:43AM 43.1475 -74.9786 272° West 348 400 30,000  Level Boston Center
07:44AM 43.1483 -75.1181 271° West 348 400 30,000  Level Boston Center
07:45AM 43.1492 -75.2547 271° West 353 406 30,000  Level Boston Center
07:46AM 43.1519 -75.3944 272° West 358 412 30,000  Level Boston Center
07:47AM 43.1544 -75.5339 271° West 368 423 30,000  Level Boston Center
07:48AM 43.1569 -75.6736 271° West 368 423 30,000  Level Boston Center
07:49AM 43.1592 -75.8161 271° West 368 423 30,000  Level Boston Center
07:50AM 43.1592 -75.9556 270° West 368 423 30,000  Level Boston Center
07:51AM 43.1631 -76.0953 272° West 368 423 30,000  Level Boston Center
07:53AM 43.1469 -76.3856 266° West 368 423 30,000  Level Cleveland Center
07:54AM 43.1353 -76.5258 264° West 373 429 30,000  Level Cleveland Center
07:55AM 43.1211 -76.6633 262° West 373 429 30,000  Level Cleveland Center
07:56AM 43.1075 -76.8178 263° West 373 429 30,000  Level Cleveland Center
07:57AM 43.0956 -76.9608 264° West 373 429 30,000  Level Cleveland Center
07:58AM 43.0831 -77.1036 263° West 373 429 30,000  Level Cleveland Center
07:59AM 43.0686 -77.2494 262° West 378 435 30,000  Level Cleveland Center
08:00AM 43.0561 -77.3922 263° West 383 441 30,000  Level Cleveland Center
08:01AM 43.0414 -77.5408 262° West 393 452 30,000  Level Cleveland Center
08:02AM 43.0283 -77.6833 263° West 393 452 30,000  Level Cleveland Center
08:03AM 43.0131 -77.8289 262° West 388 447 30,000  Level Cleveland Center
08:04AM 42.9997 -77.9686 263° West 388 447 30,000  Level Cleveland Center
08:05AM 42.9861 -78.1139 263° West 388 447 30,000  Level Cleveland Center
08:06AM 42.9706 -78.2594 262° West 393 452 30,000  Level Cleveland Center
08:07AM 42.9567 -78.4044 263° West 393 452 30,000  Level Cleveland Center
08:08AM 42.9406 -78.5525 262° West 393 452 30,000  Level Cleveland Center
08:09AM 42.9242 -78.7006 261° West 393 452 30,000  Level Cleveland Center
08:10AM 42.9014 -78.8458 258° West 393 452 30,000  Level Cleveland Center
08:11AM 42.8828 -78.9936 260° West 393 452 30,000  Level Cleveland Center
08:12AM 42.8617 -79.1386 259° West 393 452 30,000  Level Cleveland Center
08:13AM 42.8406 -79.2864 259° West 393 452 30,000 -240 Level Cleveland Center
08:14AM 42.8172 -79.4342 258° West 393 452 29,600 -600 Descending Cleveland Center
08:15AM 42.7936 -79.5900 258° West 403 464 28,900 -780 Descending Cleveland Center
08:16AM 42.7697 -79.7461 258° West 414 476 28,100 -480 Descending Cleveland Center
08:17AM 42.7519 -79.8989 261° West 414 476 28,000 -60 Descending Cleveland Center
08:18AM 42.7425 -80.0489 265° West 420 483 28,000  Level Cleveland Center
08:19AM 42.7389 -80.2044 268° West 420 483 28,000  Level Cleveland Center
08:20AM 42.7308 -80.3569 266° West 425 489 28,000  Level Cleveland Center
08:21AM 42.7228 -80.5183 266° West 424 488 28,000 -120 Level Cleveland Center
08:22AM 42.7164 -80.6736 267° West 419 482 27,800 -780 Descending Cleveland Center
08:23AM 42.7100 -80.8319 267° West 414 476 26,500 -1,260 Descending Cleveland Center
08:24AM 42.6969 -80.9983 264° West 419 482 25,300 -1,260 Descending Cleveland Center
08:25AM 42.6778 -81.1481 260° West 406 467 24,000 -1,080 Descending Cleveland Center
08:26AM 42.6622 -81.2833 261° West 401 461 23,200 -1,140 Descending Cleveland Center
08:27AM 42.6447 -81.4328 261° West 396 456 21,800 -1,380 Descending Cleveland Center
08:28AM 42.6267 -81.5764 260° West 390 449 20,500 -1,320 Descending Cleveland Center
08:29AM 42.6108 -81.7200 262° West 390 449 19,200 -1,500 Descending Cleveland Center
08:30AM 42.5950 -81.8522 261° West 380 437 17,600 -1,500 Descending Cleveland Center
08:31AM 42.5767 -81.9931 260° West 372 428 16,300 -1,320 Descending Cleveland Center
08:32AM 42.5603 -82.1278 261° West 372 428 15,000 -1,200 Descending Cleveland Center
08:33AM 42.5417 -82.2628 259° West 372 428 13,900 -1,200 Descending Cleveland Center
08:34AM 42.5294 -82.3864 262° West 353 406 12,800 -1,020 Descending Cleveland Center
08:35AM 42.5150 -82.5100 261° West 337 388 12,000 -480 Descending Cleveland Center
08:35AM 42.4906 -82.5936 248° West 343 395 12,000  Level Cleveland Center
08:36AM 42.4775 -82.6269 242° Southwest 344 396 12,000  Level Cleveland Center
08:36AM 42.4489 -82.7133 246° West 355 409 12,000  Level Cleveland Center
08:37AM 42.4356 -82.7467 242° Southwest 349 402 12,000  Level Cleveland Center
08:37AM 42.4025 -82.8411 245° Southwest 353 406 12,000  Level Cleveland Center
08:38AM 42.3917 -82.8661 240° Southwest 361 415 12,000  Level Cleveland Center
08:38AM 42.3628 -82.9578 247° West 349 402 12,000  Level Cleveland Center
08:39AM 42.3519 -82.9797 236° Southwest 356 410 12,000  Level Cleveland Center
08:39AM 42.3206 -83.0742 246° West 344 396 12,000  Level Cleveland Center
08:40AM 42.3097 -83.0961 236° Southwest 351 404 12,000  Level Cleveland Center
08:40AM 42.2853 -83.1708 246° West 269 310 12,000  Level Cleveland Center
08:41AM 42.2683 -83.1814 205° Southwest 304 350 12,000 -600 Level Cleveland Center
08:41AM 42.2172 -83.2186 208° Southwest 273 314 11,400 -900 Descending Cleveland Center
08:42AM 42.1983 -83.2236 191° South 273 314 11,100 -1,320 Descending Cleveland Center
08:42AM 42.1456 -83.2606 207° Southwest 267 307 10,100 -1,320 Descending Cleveland Center
08:43AM 42.1267 -83.2681 196° South 273 314 9,800 -2,100 Descending Cleveland Center
08:43AM 42.0758 -83.2994 205° Southwest 260 299 8,000 -1,920 Descending Cleveland Center
08:44AM 42.0144 -83.3389 206° Southwest 232 267 6,500 -1,500 Descending Cleveland Center
08:45AM 41.9778 -83.3875 225° Southwest 194 223 5,000 -1,500 Descending Cleveland Center
08:47AM 41.9925 -83.4608 285° West 182 209 3,300 -960 Descending Cleveland Center
08:48AM 42.0383 -83.4714 350° North 151 174 3,000 -300 Descending Cleveland Center